createdAt,value
2018-07-07T00:05:20.629Z,90.00
2018-07-07T00:15:21.908Z,88.70
2018-07-07T00:25:24.079Z,84.00
2018-07-07T00:45:31.781Z,85.70
2018-07-07T00:55:33.052Z,86.70
2018-07-07T01:05:34.310Z,89.10
2018-07-07T01:15:36.363Z,89.60
2018-07-07T01:25:37.635Z,89.60
2018-07-07T01:35:39.057Z,90.60
2018-07-07T01:45:40.307Z,91.10
2018-07-07T01:55:42.419Z,92.50
2018-07-07T02:05:44.502Z,92.90
2018-07-07T02:15:45.754Z,92.90
2018-07-07T02:25:47.039Z,92.90
2018-07-07T02:35:54.254Z,92.70
2018-07-07T02:45:56.315Z,93.30
2018-07-07T02:55:57.588Z,93.30
2018-07-07T03:05:59.597Z,93.80
2018-07-07T03:16:01.641Z,93.20
2018-07-07T03:26:02.916Z,93.10
2018-07-07T03:36:04.193Z,93.40
2018-07-07T03:46:06.227Z,93.60
2018-07-07T03:56:07.688Z,93.60
2018-07-07T04:06:08.948Z,93.80
2018-07-07T04:16:10.229Z,93.40
2018-07-07T04:26:11.480Z,94.20
2018-07-07T04:36:12.747Z,93.30
2018-07-07T04:46:14.011Z,93.60
2018-07-07T04:56:15.293Z,91.20
2018-07-07T05:06:16.629Z,84.90
2018-07-07T05:16:17.902Z,85.70
2018-07-07T05:26:19.157Z,85.20
2018-07-07T05:36:20.439Z,72.90
2018-07-07T05:46:21.683Z,71.10
2018-07-07T05:56:22.946Z,68.60
2018-07-07T06:06:24.226Z,69.30
2018-07-07T06:16:25.470Z,65.60
2018-07-07T06:26:26.727Z,64.70
2018-07-07T06:36:27.970Z,61.30
2018-07-07T06:56:35.877Z,49.70
2018-07-07T07:06:37.164Z,43.00
2018-07-07T07:16:42.942Z,50.20
2018-07-07T07:26:44.194Z,54.80
2018-07-07T07:36:45.498Z,54.20
2018-07-07T07:46:48.853Z,52.90
2018-07-07T07:56:50.153Z,50.90
2018-07-07T08:06:51.429Z,48.50
2018-07-07T08:16:52.698Z,45.30
2018-07-07T08:26:54.119Z,37.70
2018-07-07T08:36:55.473Z,30.50
2018-07-07T08:57:05.151Z,26.10
2018-07-07T09:07:06.558Z,26.40
2018-07-07T09:17:08.127Z,26.40
2018-07-07T09:27:10.161Z,27.70
2018-07-07T09:37:11.437Z,27.70
2018-07-07T09:47:13.472Z,28.20
2018-07-07T09:57:14.783Z,27.60
2018-07-07T10:07:16.048Z,28.90
2018-07-07T10:17:18.087Z,28.40
2018-07-07T10:27:19.366Z,28.40
2018-07-07T10:37:20.650Z,27.90
2018-07-07T10:47:21.937Z,33.00
2018-07-07T10:57:24.126Z,39.60
2018-07-07T11:07:25.399Z,39.50
2018-07-07T11:17:26.719Z,40.60
2018-07-07T11:27:28.027Z,41.10
2018-07-07T11:37:29.299Z,38.90
2018-07-07T11:47:35.133Z,40.60
2018-07-07T11:57:37.165Z,39.90
2018-07-07T12:07:39.206Z,38.90
2018-07-07T12:17:40.478Z,38.80
2018-07-07T12:27:41.723Z,39.70
2018-07-07T12:57:57.178Z,41.80
2018-07-07T13:07:58.427Z,43.40
2018-07-07T13:18:00.454Z,44.40
2018-07-07T13:28:01.708Z,44.40
2018-07-07T13:38:02.943Z,41.70
2018-07-07T13:48:04.192Z,41.70
2018-07-07T13:58:09.483Z,43.80
2018-07-07T14:08:10.890Z,43.00
2018-07-07T14:18:14.221Z,41.90
2018-07-07T14:28:15.512Z,44.10
2018-07-07T15:28:54.018Z,40.50
2018-07-07T15:38:56.790Z,39.70
2018-07-07T15:59:05.985Z,40.00
2018-07-07T16:09:07.227Z,40.50
2018-07-07T16:19:10.803Z,41.00
2018-07-07T16:29:12.811Z,41.00
2018-07-07T16:39:14.953Z,43.30
2018-07-07T16:49:18.516Z,43.10
2018-07-07T16:59:19.760Z,43.00
2018-07-07T17:09:21.106Z,43.30
2018-07-07T17:29:34.234Z,43.50
2018-07-07T17:39:35.591Z,43.80
2018-07-07T18:09:55.418Z,44.10
2018-07-07T18:30:08.133Z,41.70
2018-07-07T18:40:09.444Z,41.40
2018-07-07T18:50:11.744Z,40.60
2018-07-07T19:00:13.726Z,39.60
2018-07-07T19:10:15.013Z,39.00
2018-07-07T19:20:16.324Z,38.10
2018-07-07T19:30:17.550Z,39.10
2018-07-07T19:40:18.817Z,39.70
2018-07-07T19:50:20.087Z,40.40
2018-07-07T20:00:21.319Z,41.70
2018-07-07T20:10:22.607Z,42.30
2018-07-07T20:20:23.836Z,43.00
2018-07-07T21:10:58.639Z,44.70
2018-07-07T21:21:00.611Z,45.40
2018-07-07T21:31:02.631Z,47.80
2018-07-07T21:41:04.660Z,49.00
2018-07-07T21:51:05.922Z,49.00
2018-07-07T22:01:08.098Z,51.00
2018-07-07T22:11:09.358Z,50.90
2018-07-07T22:21:10.801Z,52.00
2018-07-07T22:31:12.063Z,52.70
2018-07-07T22:41:13.479Z,56.40
2018-07-07T22:51:14.904Z,57.30
2018-07-07T23:01:16.182Z,58.90
2018-07-07T23:11:17.588Z,61.40
2018-07-07T23:21:18.874Z,62.20
2018-07-07T23:31:20.132Z,64.20
2018-07-07T23:41:21.426Z,67.60
2018-07-07T23:51:22.698Z,69.00
